Terminal Aerodrome Forecast
Issued by NWS Blacksburg, VA

Home | Current Version | Previous Version | Text Only | Print | Product List | Glossary On
Versions: 1 2 3 4 5 6 7 8 9 10 11 12 13 14 15 16 17 18 19 20 21 22 23 24 25 26 27 28 29 30 31 32 33 34 35 36 37 38 39 40 41 42
000
FTUS41 KRNK 201140
TAFROA
TAF
KROA 201140Z 2012/2112 VRB03KT P6SM SCT004 OVC015
      TEMPO 2012/2013 4SM BR OVC002
     FM201500 VRB03KT 6SM -SHRA SCT015 OVC040
     FM201700 16006KT P6SM VCTS BKN050CB
     FM202000 VRB03KT P6SM SCT060 BKN200
     FM210800 VRB03KT 6SM BR SCT005=

USA.gov is the U.S. government's official web portal to all federal, state and local government web resources and services.